Time;durP1;ratioP1;P1;durP2;ratioP2;P2;SDS_P1;SDS_P2;PMS_P1;PMS_P2;Temp;Humidity;BMP_temperature;BMP_pressure;BME280_temperature;BME280_humidity;BME280_pressure;Samples;Min_cycle;Max_cycle;Signal;HPM_P1;HPM_P2
2022/12/18 00:01:39;;;;;;;16.85;11.80;;;;;;;8.39;71.49;102367.34;4945852;28;20438;-81
2022/12/18 00:04:18;;;;;;;17.42;12.77;;;;;;;8.14;70.79;102339.50;4958954;28;20061;-81
2022/12/18 00:06:45;;;;;;;18.55;12.15;;;;;;;8.43;71.19;102379.50;4956082;28;20128;-79
2022/12/18 00:09:14;;;;;;;19.58;13.32;;;;;;;8.38;71.11;102392.09;4961460;28;20053;-82
2022/12/18 00:11:41;;;;;;;13.80;11.60;;;;;;;8.19;70.85;102371.00;4961836;28;20073;-81
2022/12/18 00:14:10;;;;;;;16.38;13.20;;;;;;;8.17;69.83;102352.56;4964514;28;20504;-81
2022/12/18 00:16:37;;;;;;;18.42;13.27;;;;;;;7.98;70.57;102330.59;4960627;28;20058;-80
2022/12/18 00:19:05;;;;;;;16.85;12.27;;;;;;;7.41;70.62;102239.13;4947413;28;20062;-81
2022/12/18 00:21:34;;;;;;;16.55;12.95;;;;;;;8.19;69.87;102371.00;4940610;28;20054;-81
2022/12/18 00:24:03;;;;;;;16.42;12.43;;;;;;;8.25;70.34;102389.19;4942797;28;20058;-81
2022/12/18 00:26:34;;;;;;;17.15;12.35;;;;;;;8.07;70.00;102367.19;4941842;28;20346;-80
2022/12/18 00:29:11;;;;;;;15.63;12.05;;;;;;;8.30;70.02;102409.22;4960073;28;20065;-80
2022/12/18 00:31:38;;;;;;;17.48;12.52;;;;;;;8.31;69.63;102413.56;4943954;28;20094;-81
2022/12/18 00:34:04;;;;;;;12.80;10.75;;;;;;;8.18;69.32;102401.03;4942513;28;20389;-81
2022/12/18 00:36:36;;;;;;;17.08;11.60;;;;;;;8.27;69.43;102417.28;4943172;28;20575;-81
2022/12/18 00:39:04;;;;;;;17.75;11.82;;;;;;;8.10;69.18;102396.13;4944483;28;20089;-81
2022/12/18 00:44:19;;;;;;;16.52;11.70;;;;;;;7.52;68.84;102303.81;4968761;28;20317;-81
2022/12/18 00:46:47;;;;;;;14.25;11.02;;;;;;;8.20;69.37;102425.63;4963386;28;20176;-80
2022/12/18 00:49:19;;;;;;;16.83;12.25;;;;;;;8.19;69.24;102439.78;4947488;28;20065;-80
2022/12/18 00:51:49;;;;;;;;;;;;;;;8.13;69.68;102446.22;4944562;28;20065;-81
2022/12/18 00:54:17;;;;;;;17.00;12.00;;;;;;;7.41;69.74;102336.91;4946458;28;19926;-79
2022/12/18 00:56:44;;;;;;;15.20;11.70;;;;;;;7.96;70.71;102427.69;4947606;28;20088;-81
2022/12/18 00:59:16;;;;;;;17.37;12.57;;;;;;;8.09;70.10;102442.03;4947319;28;20483;-81
2022/12/18 01:01:43;;;;;;;22.50;12.63;;;;;;;7.99;68.81;102432.84;4969107;28;20050;-80
2022/12/18 01:04:11;;;;;;;18.98;13.35;;;;;;;7.65;69.49;102376.31;4967537;28;20762;-80
2022/12/18 01:06:38;;;;;;;13.85;11.82;;;;;;;7.47;69.19;102351.59;4965964;28;20053;-81
2022/12/18 01:09:05;;;;;;;15.52;11.75;;;;;;;8.13;69.41;102456.81;4966123;28;20505;-80
2022/12/18 01:11:39;;;;;;;16.33;11.90;;;;;;;8.06;68.89;102456.28;4968263;28;20046;-80
2022/12/18 01:14:06;;;;;;;15.57;12.93;;;;;;;7.91;68.58;102442.00;4970028;28;20954;-81
2022/12/18 01:16:33;;;;;;;14.98;11.65;;;;;;;7.76;68.63;102413.63;4965434;28;20512;-83
2022/12/18 01:19:00;;;;;;;13.55;11.57;;;;;;;7.92;69.34;102449.00;4947487;28;20177;-81
2022/12/18 01:21:27;;;;;;;14.00;11.55;;;;;;;7.83;68.53;102416.84;4945607;28;20144;-82
2022/12/18 01:23:56;;;;;;;16.60;11.70;;;;;;;7.59;68.03;102388.00;4944367;28;20085;-82
2022/12/18 01:26:24;;;;;;;16.70;12.77;;;;;;;7.95;68.00;102444.50;4942685;28;20128;-81
2022/12/18 01:28:50;;;;;;;17.60;12.38;;;;;;;7.86;67.01;102420.22;4961157;28;20169;-81
2022/12/18 01:31:19;;;;;;;17.13;12.73;;;;;;;7.92;67.27;102437.56;4946156;28;20561;-80
2022/12/18 01:33:46;;;;;;;14.63;11.95;;;;;;;7.50;67.59;102372.63;4943909;28;20048;-82
2022/12/18 01:36:22;;;;;;;16.70;12.23;;;;;;;7.78;67.20;102432.94;4943944;28;20517;-81
2022/12/18 01:38:49;;;;;;;14.88;12.10;;;;;;;7.85;67.97;102452.88;4961865;28;20817;-82
2022/12/18 01:41:18;;;;;;;14.90;11.27;;;;;;;7.71;68.30;102426.22;4944154;28;20124;-82
2022/12/18 01:43:51;;;;;;;14.85;12.05;;;;;;;6.72;68.77;102276.75;4944225;28;20054;-82
2022/12/18 01:46:20;;;;;;;18.48;12.43;;;;;;;7.69;69.24;102446.59;4943926;28;20990;-82
2022/12/18 01:48:53;;;;;;;15.90;12.10;;;;;;;7.73;68.57;102447.31;4946446;28;20050;-81
2022/12/18 01:51:24;;;;;;;14.55;12.65;;;;;;;7.33;69.37;102393.66;4945902;28;20062;-80
2022/12/18 01:53:51;;;;;;;19.63;13.02;;;;;;;7.53;69.07;102429.75;4944208;28;20050;-80
2022/12/18 01:56:22;;;;;;;20.55;13.57;;;;;;;7.32;69.51;102389.31;4945215;28;20567;-81
2022/12/18 01:59:02;;;;;;;16.33;13.27;;;;;;;7.60;69.35;102452.31;4947703;28;20217;-79
2022/12/18 02:01:54;;;;;;;17.27;13.27;;;;;;;7.49;70.99;102451.03;4942720;28;20144;-79
2022/12/18 02:04:26;;;;;;;19.17;13.73;;;;;;;7.58;69.55;102470.03;4944287;28;21022;-81
2022/12/18 02:07:11;;;;;;;21.35;13.40;;;;;;;7.48;69.60;102474.91;4945448;28;20572;-81
2022/12/18 02:10:13;;;;;;;16.63;13.40;;;;;;;7.37;70.09;102483.28;4947723;28;20061;-80
2022/12/18 02:12:54;;;;;;;17.98;13.57;;;;;;;7.32;69.49;102490.56;4938377;28;20057;-80
2022/12/18 02:15:23;;;;;;;18.30;13.82;;;;;;;7.25;70.05;102483.84;4947076;28;20043;-80
2022/12/18 02:18:08;;;;;;;17.63;13.18;;;;;;;7.21;70.67;102482.28;4950766;28;20588;-81
2022/12/18 02:20:51;;;;;;;17.10;13.15;;;;;;;6.31;70.55;102326.09;4970221;28;20157;-81
2022/12/18 02:23:30;;;;;;;15.63;13.38;;;;;;;7.32;70.36;102495.84;4951803;28;20058;-82
2022/12/18 02:26:06;;;;;;;17.63;13.85;;;;;;;7.29;69.99;102496.00;4949445;28;20053;-82
2022/12/18 02:28:44;;;;;;;19.02;14.10;;;;;;;7.10;69.72;102460.78;4950839;28;20057;-81
2022/12/18 02:31:19;;;;;;;17.42;13.77;;;;;;;6.59;69.30;102391.72;4970447;28;20058;-80
2022/12/18 02:33:53;;;;;;;16.13;13.02;;;;;;;7.24;70.25;102498.00;4962828;28;20144;-82
2022/12/18 02:36:22;;;;;;;20.55;14.18;;;;;;;7.23;69.66;102504.19;4962080;28;20631;-81
2022/12/18 02:38:54;;;;;;;18.08;13.82;;;;;;;6.94;69.68;102469.38;4944560;28;20507;-80
2022/12/18 02:41:23;;;;;;;18.42;14.80;;;;;;;7.04;69.29;102475.13;4945244;28;20070;-80
2022/12/18 02:43:56;;;;;;;16.52;13.70;;;;;;;7.13;68.97;102497.59;4943382;28;20583;-79
2022/12/18 02:46:36;;;;;;;17.33;13.98;;;;;;;7.27;68.47;102521.63;4943464;28;20085;-81
2022/12/18 02:49:22;;;;;;;16.55;13.35;;;;;;;7.27;68.60;102532.19;4941959;28;20042;-82
2022/12/18 02:51:59;;;;;;;16.50;13.13;;;;;;;6.19;68.25;102353.88;4960474;28;20134;-80
2022/12/18 02:54:47;;;;;;;19.65;14.77;;;;;;;7.22;68.56;102539.47;4958110;28;20273;-81
2022/12/18 02:57:48;;;;;;;19.05;14.98;;;;;;;7.26;67.89;102549.00;4960778;28;20116;-80
2022/12/18 03:00:34;;;;;;;15.48;12.50;;;;;;;7.22;68.17;102552.69;4957645;28;20057;-81
2022/12/18 03:03:20;;;;;;;17.35;14.13;;;;;;;7.19;68.20;102547.53;4944544;28;20062;-80
2022/12/18 03:06:25;;;;;;;17.00;14.07;;;;;;;7.08;67.41;102529.50;4924501;28;20051;-81
2022/12/18 03:09:05;;;;;;;16.98;12.48;;;;;;;7.20;67.36;102547.44;4927008;28;20059;-81
2022/12/18 03:14:25;;;;;;;17.02;12.57;;;;;;;7.32;67.03;102563.69;4943232;28;20054;-82
2022/12/18 03:16:57;;;;;;;19.00;13.50;;;;;;;7.23;67.43;102560.56;4939412;28;20057;-82
2022/12/18 03:19:26;;;;;;;;;;;;;;;7.20;67.76;102568.59;4923547;28;20389;-83
2022/12/18 03:21:58;;;;;;;14.45;12.23;;;;;;;7.09;67.91;102540.91;4922760;28;19926;-80
2022/12/18 03:24:28;;;;;;;14.23;12.02;;;;;;;7.32;67.31;102569.00;4926330;28;20039;-80
2022/12/18 03:27:02;;;;;;;17.83;13.93;;;;;;;7.24;67.51;102564.03;4957137;28;20046;-81
2022/12/18 03:29:46;;;;;;;17.67;13.10;;;;;;;6.92;67.92;102513.47;4930834;28;20065;-82
2022/12/18 03:32:26;;;;;;;15.93;12.02;;;;;;;7.23;67.54;102565.84;4950903;28;20089;-82
2022/12/18 03:34:57;;;;;;;17.92;13.77;;;;;;;7.05;67.64;102541.06;4944676;28;20116;-82
2022/12/18 03:37:30;;;;;;;18.55;12.93;;;;;;;7.20;67.92;102559.81;4943296;28;20603;-81
2022/12/18 03:39:56;;;;;;;16.25;13.40;;;;;;;7.19;67.90;102573.94;4944331;28;20054;-81
2022/12/18 03:42:40;;;;;;;16.05;12.98;;;;;;;7.26;67.76;102575.41;4945648;28;20736;-80
2022/12/18 03:45:14;;;;;;;16.27;12.85;;;;;;;6.54;67.49;102468.44;4959541;28;20139;-81
2022/12/18 03:48:00;;;;;;;16.55;13.07;;;;;;;7.20;68.48;102575.66;4963627;28;20566;-81
2022/12/18 03:50:53;;;;;;;20.38;13.85;;;;;;;6.47;68.21;102459.06;4966435;28;20505;-82
2022/12/18 03:53:38;;;;;;;15.43;13.27;;;;;;;7.12;67.93;102575.16;4964496;28;20428;-82
2022/12/18 03:56:12;;;;;;;14.02;12.45;;;;;;;7.12;67.64;102572.50;4965335;28;20594;-80
2022/12/18 03:58:41;;;;;;;16.48;13.10;;;;;;;7.01;67.21;102549.16;4963825;28;20049;-82
2022/12/18 04:01:13;;;;;;;15.98;13.38;;;;;;;6.89;67.51;102540.00;4960822;28;20149;-81
2022/12/18 04:03:41;;;;;;;;;;;;;;;7.12;67.87;102591.00;4943189;28;20285;-80
2022/12/18 04:06:10;;;;;;;15.93;12.55;;;;;;;7.09;68.23;102589.34;4945249;28;20497;-82
2022/12/18 04:08:39;;;;;;;17.83;13.98;;;;;;;6.71;67.69;102525.78;4942635;28;20061;-81
2022/12/18 04:11:06;;;;;;;16.05;13.80;;;;;;;6.99;68.04;102565.09;4943936;28;20200;-81
2022/12/18 04:13:36;;;;;;;17.95;13.60;;;;;;;7.04;68.37;102572.84;4943288;28;20348;-82
2022/12/18 04:16:06;;;;;;;18.48;12.85;;;;;;;6.98;68.32;102566.00;4940208;28;20053;-81
2022/12/18 04:18:34;;;;;;;17.67;14.15;;;;;;;7.15;68.66;102597.00;4943182;28;20050;-80
2022/12/18 04:21:01;;;;;;;16.73;13.07;;;;;;;7.12;68.46;102591.00;4945241;28;20120;-81
2022/12/18 04:23:28;;;;;;;18.02;13.60;;;;;;;6.79;67.97;102536.03;4943284;28;20054;-84
2022/12/18 04:25:54;;;;;;;14.13;12.00;;;;;;;7.07;68.30;102584.09;4944868;28;20610;-81
2022/12/18 04:28:22;;;;;;;15.93;13.02;;;;;;;7.00;67.77;102584.44;4942155;28;20564;-80
2022/12/18 04:30:49;;;;;;;15.65;13.18;;;;;;;7.07;67.99;102607.03;4945131;28;20046;-82
2022/12/18 04:33:16;;;;;;;15.32;13.13;;;;;;;6.97;68.24;102590.72;4941912;28;20061;-82
2022/12/18 04:35:43;;;;;;;16.92;13.23;;;;;;;6.96;68.36;102588.13;4941758;28;20046;-81
2022/12/18 04:38:10;;;;;;;15.27;12.48;;;;;;;6.96;68.17;102596.91;4941407;28;20543;-80
2022/12/18 04:40:38;;;;;;;17.08;13.40;;;;;;;7.23;67.69;102638.91;4943311;28;20483;-81
2022/12/18 04:43:06;;;;;;;19.15;13.55;;;;;;;7.04;67.41;102615.94;4942968;28;20058;-79
2022/12/18 04:45:33;;;;;;;17.02;12.38;;;;;;;7.28;66.93;102650.16;4960121;28;20050;-82
2022/12/18 04:48:04;;;;;;;16.20;13.75;;;;;;;6.90;66.58;102594.53;4961609;28;20120;-82
2022/12/18 04:50:32;;;;;;;15.75;12.55;;;;;;;7.06;66.28;102616.75;4961068;28;20223;-82
2022/12/18 04:52:59;;;;;;;16.10;13.23;;;;;;;7.29;66.55;102665.09;4961356;28;20554;-81
2022/12/18 04:55:27;;;;;;;16.67;13.10;;;;;;;7.22;66.65;102663.63;4961387;28;20529;-80
2022/12/18 04:57:54;;;;;;;17.67;13.48;;;;;;;7.20;66.29;102652.25;4959215;28;20050;-81
2022/12/18 05:00:24;;;;;;;16.08;12.93;;;;;;;7.35;66.13;102674.53;4961650;28;20626;-81
2022/12/18 05:02:51;;;;;;;13.70;12.02;;;;;;;6.94;65.48;102621.66;4948534;28;20058;-80
2022/12/18 05:05:18;;;;;;;14.60;12.50;;;;;;;7.09;66.10;102651.84;4941875;28;20559;-81
2022/12/18 05:07:45;;;;;;;20.65;12.90;;;;;;;7.09;64.51;102652.72;4940985;28;20142;-81
2022/12/18 05:10:12;;;;;;;18.02;12.63;;;;;;;7.20;64.67;102676.03;4940430;28;20066;-81
2022/12/18 05:12:57;;;;;;;17.73;12.48;;;;;;;7.22;64.51;102675.06;4922699;28;20141;-80
2022/12/18 05:15:36;;;;;;;18.55;13.57;;;;;;;7.19;64.98;102683.13;4921631;28;20458;-81
2022/12/18 05:18:04;;;;;;;14.10;12.52;;;;;;;7.14;64.78;102677.16;4935506;28;20118;-81
2022/12/18 05:20:31;;;;;;;15.07;12.65;;;;;;;7.23;64.09;102676.78;4936911;28;20055;-82
2022/12/18 05:23:01;;;;;;;12.80;10.40;;;;;;;7.21;63.73;102683.06;4938009;28;20372;-81
2022/12/18 05:25:29;;;;;;;17.10;13.10;;;;;;;7.23;64.28;102694.41;4937577;28;20572;-79
2022/12/18 05:27:56;;;;;;;17.08;12.18;;;;;;;7.27;64.19;102698.63;4920829;28;20183;-81
2022/12/18 05:30:23;;;;;;;14.07;12.13;;;;;;;7.27;64.22;102694.22;4934587;28;20082;-83
2022/12/18 05:32:50;;;;;;;15.95;11.98;;;;;;;7.26;63.42;102699.56;4939170;28;20534;-82
2022/12/18 05:35:17;;;;;;;16.83;11.38;;;;;;;7.13;63.32;102688.63;4938431;28;20050;-80
2022/12/18 05:37:48;;;;;;;14.05;11.45;;;;;;;7.24;63.38;102704.06;4938132;28;20560;-80
2022/12/18 05:40:17;;;;;;;15.10;12.02;;;;;;;7.15;62.77;102688.59;4934740;28;20603;-81
2022/12/18 05:42:44;;;;;;;14.88;11.23;;;;;;;7.16;63.36;102700.84;4942461;28;20089;-80
2022/12/18 05:45:13;;;;;;;14.85;12.32;;;;;;;7.00;64.04;102680.38;4959777;28;20555;-81
2022/12/18 05:47:41;;;;;;;14.23;11.90;;;;;;;7.22;63.33;102716.47;4964952;28;20156;-80
2022/12/18 05:50:08;;;;;;;15.80;11.18;;;;;;;7.27;63.25;102730.34;4962992;28;20514;-81
2022/12/18 05:52:35;;;;;;;14.70;12.13;;;;;;;7.25;64.11;102717.19;4963065;28;20171;-81
2022/12/18 05:55:05;;;;;;;15.45;12.48;;;;;;;7.14;63.47;102697.44;4964583;28;20050;-81
2022/12/18 05:57:35;;;;;;;15.07;12.63;;;;;;;7.20;63.39;102720.94;4966621;28;20503;-80
2022/12/18 06:00:03;;;;;;;14.05;11.93;;;;;;;7.16;63.66;102728.16;4966910;28;20082;-81
2022/12/18 06:02:32;;;;;;;17.77;12.32;;;;;;;7.01;63.63;102703.19;4952881;28;20058;-81
2022/12/18 06:05:00;;;;;;;14.15;12.20;;;;;;;7.15;63.66;102723.78;4928853;28;20051;-81
2022/12/18 06:07:26;;;;;;;15.15;12.00;;;;;;;7.21;64.17;102738.53;4926390;28;20153;-81
2022/12/18 06:09:53;;;;;;;14.00;11.73;;;;;;;6.59;63.23;102651.19;4943301;28;20161;-81
2022/12/18 06:12:20;;;;;;;13.52;11.15;;;;;;;7.21;63.74;102751.75;4927197;28;20145;-81
2022/12/18 06:14:47;;;;;;;18.33;13.15;;;;;;;6.95;64.12;102718.44;4928528;28;20054;-81
2022/12/18 06:17:14;;;;;;;15.20;11.65;;;;;;;7.13;63.47;102738.81;4932254;28;20086;-80
2022/12/18 06:19:44;;;;;;;16.80;12.38;;;;;;;7.15;63.90;102750.19;4931370;28;20078;-82
2022/12/18 06:22:10;;;;;;;15.95;11.88;;;;;;;6.90;63.66;102697.50;4936813;28;20567;-81
2022/12/18 06:24:37;;;;;;;15.07;12.43;;;;;;;7.12;63.42;102752.97;4949036;28;20133;-81
2022/12/18 06:27:04;;;;;;;14.90;11.48;;;;;;;7.00;63.96;102750.81;4949584;28;20566;-82
2022/12/18 06:29:30;;;;;;;14.20;11.88;;;;;;;6.77;65.65;102723.53;4936444;28;20086;-82
2022/12/18 06:31:57;;;;;;;17.85;12.80;;;;;;;6.79;65.27;102731.38;4931135;28;20054;-82
2022/12/18 06:34:24;;;;;;;16.45;12.50;;;;;;;6.39;63.98;102678.38;4924350;28;20057;-80
2022/12/18 06:36:50;;;;;;;22.23;13.18;;;;;;;6.79;64.43;102769.19;4926764;28;20058;-82
2022/12/18 06:39:17;;;;;;;15.45;12.60;;;;;;;6.92;64.40;102793.38;4930181;28;20781;-82
2022/12/18 06:41:47;;;;;;;18.33;12.93;;;;;;;6.79;63.94;102781.53;4943741;28;20061;-81
2022/12/18 06:44:14;;;;;;;13.98;11.88;;;;;;;6.79;63.76;102778.91;4945873;28;20471;-80
2022/12/18 06:46:44;;;;;;;15.25;12.02;;;;;;;6.63;64.36;102752.25;4943023;28;20050;-82
2022/12/18 06:49:11;;;;;;;18.65;12.00;;;;;;;6.93;63.58;102805.63;4945594;28;20058;-82
2022/12/18 06:51:39;;;;;;;15.25;11.40;;;;;;;6.81;64.53;102787.63;4944895;28;20666;-82
2022/12/18 06:54:08;;;;;;;14.75;12.57;;;;;;;6.75;64.51;102795.81;4956273;28;20065;-81
2022/12/18 06:56:38;;;;;;;15.73;12.63;;;;;;;6.77;64.50;102809.78;4972479;28;20144;-80
2022/12/18 06:59:06;;;;;;;12.95;11.40;;;;;;;6.63;66.09;102811.16;4945089;28;20514;-76
2022/12/18 07:01:35;;;;;;;16.50;13.13;;;;;;;6.63;65.36;102813.81;4943801;28;20614;-79
2022/12/18 07:04:03;;;;;;;15.00;13.00;;;;;;;6.51;65.36;102782.59;4944559;28;20054;-79
2022/12/18 07:06:30;;;;;;;14.07;12.45;;;;;;;6.62;65.32;102808.56;4945868;28;20046;-78
2022/12/18 07:08:59;;;;;;;16.20;12.50;;;;;;;6.75;65.02;102822.19;4943973;28;20496;-80
2022/12/18 07:11:28;;;;;;;16.58;12.55;;;;;;;6.59;64.83;102792.84;4960828;28;20247;-80
2022/12/18 07:13:55;;;;;;;16.67;12.80;;;;;;;6.76;64.38;102831.81;4943625;28;20201;-79
2022/12/18 07:16:28;;;;;;;17.02;12.80;;;;;;;6.06;64.90;102722.66;4933275;28;20663;-78
2022/12/18 07:18:56;;;;;;;15.27;12.68;;;;;;;6.72;64.70;102848.69;4944008;28;20058;-79
2022/12/18 07:21:24;;;;;;;17.77;13.00;;;;;;;6.50;65.08;102822.22;4924161;28;20164;-78
2022/12/18 07:24:05;;;;;;;14.98;12.27;;;;;;;6.43;64.96;102797.81;4939342;28;20228;-80
2022/12/18 07:26:36;;;;;;;18.38;12.52;;;;;;;6.75;65.04;102853.88;4941211;28;20793;-81
2022/12/18 07:29:05;;;;;;;14.35;12.60;;;;;;;6.50;65.59;102816.94;4942596;28;20141;-80
2022/12/18 07:31:32;;;;;;;15.02;12.85;;;;;;;6.52;65.13;102823.03;4943130;28;20742;-78
2022/12/18 07:33:59;;;;;;;15.23;12.02;;;;;;;6.28;65.14;102775.50;4928737;28;20070;-79
2022/12/18 07:36:28;;;;;;;16.55;12.95;;;;;;;6.68;64.08;102847.94;4922816;28;20057;-79
2022/12/18 07:39:04;;;;;;;16.98;12.25;;;;;;;6.79;64.96;102858.09;4926764;28;20058;-79
2022/12/18 07:41:31;;;;;;;15.52;12.77;;;;;;;6.52;64.46;102817.75;4924948;28;20591;-78
2022/12/18 07:43:58;;;;;;;16.77;12.48;;;;;;;6.74;64.47;102860.06;4929331;28;20503;-80
2022/12/18 07:46:24;;;;;;;13.38;11.85;;;;;;;6.61;65.08;102857.88;4943202;28;20050;-79
2022/12/18 07:48:51;;;;;;;17.75;13.20;;;;;;;6.77;64.96;102875.78;4942742;28;20453;-81
2022/12/18 07:51:21;;;;;;;24.52;13.57;;;;;;;6.82;64.73;102876.47;4946196;28;20050;-79
2022/12/18 07:53:48;;;;;;;18.20;13.80;;;;;;;6.74;65.57;102857.41;4960165;28;20137;-80
2022/12/18 07:56:19;;;;;;;17.80;14.25;;;;;;;6.63;64.94;102826.16;4960959;28;20066;-81
2022/12/18 07:58:56;;;;;;;18.73;13.63;;;;;;;6.98;64.53;102874.97;4974464;28;20050;-81
2022/12/18 08:01:23;;;;;;;17.58;13.68;;;;;;;7.04;64.63;102881.84;4972568;28;20058;-81
2022/12/18 08:03:50;;;;;;;20.58;14.48;;;;;;;6.98;64.57;102888.19;4943385;28;20058;-82
2022/12/18 08:06:21;;;;;;;17.17;13.65;;;;;;;6.82;65.51;102847.41;4938148;28;20062;-82
2022/12/18 08:08:55;;;;;;;17.75;14.02;;;;;;;7.06;65.14;102880.84;4941652;28;20226;-83
2022/12/18 08:11:28;;;;;;;16.85;13.60;;;;;;;6.90;65.23;102876.22;4940705;28;20050;-82
2022/12/18 08:13:59;;;;;;;20.35;13.82;;;;;;;6.91;65.43;102876.13;4941973;28;20046;-81
2022/12/18 08:16:28;;;;;;;18.02;15.10;;;;;;;6.55;66.12;102815.88;4940112;28;20081;-80
2022/12/18 08:18:56;;;;;;;17.77;14.35;;;;;;;5.66;65.59;102655.53;4959861;28;20120;-82
2022/12/18 08:21:26;;;;;;;18.70;14.50;;;;;;;6.72;65.86;102838.13;4947014;28;20297;-82
2022/12/18 08:23:55;;;;;;;19.48;14.35;;;;;;;6.56;65.81;102807.03;4944070;28;20058;-82
2022/12/18 08:26:23;;;;;;;17.90;15.52;;;;;;;6.28;66.06;102764.09;4940891;28;20056;-83
2022/12/18 08:28:50;;;;;;;48.30;43.17;;;;;;;7.18;66.40;102921.78;4941533;28;20046;-82
2022/12/18 08:31:20;;;;;;;21.92;14.73;;;;;;;6.94;64.67;102883.06;4943256;28;20085;-81
2022/12/18 08:33:51;;;;;;;17.65;15.20;;;;;;;6.96;64.15;102895.31;4943248;28;20129;-84
2022/12/18 08:36:19;;;;;;;23.10;14.45;;;;;;;6.99;63.53;102889.03;4922983;28;20050;-83
2022/12/18 08:38:48;;;;;;;16.48;13.55;;;;;;;7.20;63.83;102933.16;4874688;28;20502;-81
2022/12/18 08:41:20;;;;;;;16.48;13.60;;;;;;;7.19;63.54;102939.38;4884686;28;20059;-81
2022/12/18 08:46:42;;;;;;;15.80;13.18;;;;;;;7.32;61.88;102954.75;4975675;28;20066;-80
2022/12/18 08:49:12;;;;;;;18.17;13.73;;;;;;;7.33;62.46;102951.19;4959450;28;20054;-82
2022/12/18 08:51:41;;;;;;;16.20;13.00;;;;;;;7.14;62.08;102916.69;4913780;28;20236;-79
2022/12/18 08:54:12;;;;;;;18.20;14.02;;;;;;;7.10;63.55;102917.72;4944714;28;20064;-78
2022/12/18 08:56:39;;;;;;;17.42;13.55;;;;;;;7.36;61.88;102962.50;4971517;28;20864;-78
2022/12/18 08:59:06;;;;;;;14.75;12.93;;;;;;;7.18;61.95;102926.19;4935286;28;20276;-78
2022/12/18 09:01:53;;;;;;;18.02;12.45;;;;;;;7.47;62.17;102975.31;4925588;28;20484;-80
2022/12/18 09:04:26;;;;;;;17.98;14.50;;;;;;;7.46;62.01;102976.25;4959794;28;20408;-78
2022/12/18 09:06:57;;;;;;;16.45;12.18;;;;;;;7.39;61.71;102972.97;4912168;28;20789;-78
2022/12/18 09:09:29;;;;;;;;;;;;;;;7.53;62.03;102988.31;4923138;28;20062;-79
2022/12/18 09:12:03;;;;;;;17.10;11.95;;;;;;;7.40;61.94;102972.06;4958746;28;19926;-77
2022/12/18 09:14:29;;;;;;;17.48;12.90;;;;;;;7.13;62.12;102921.09;4952639;28;20140;-80
2022/12/18 09:16:56;;;;;;;16.83;11.98;;;;;;;7.52;62.00;102994.50;4961529;28;20105;-80
2022/12/18 09:19:27;;;;;;;14.63;12.57;;;;;;;7.36;61.54;102967.78;4969050;28;20160;-81
2022/12/18 09:21:57;;;;;;;16.77;12.52;;;;;;;7.55;61.22;102990.88;4965330;28;20402;-81
2022/12/18 09:24:30;;;;;;;;;;;;;;;7.63;60.95;103009.97;4968968;28;20591;-81
2022/12/18 09:26:56;;;;;;;15.98;13.10;;;;;;;7.46;61.48;102966.53;4960419;28;20474;-83
2022/12/18 09:29:26;;;;;;;15.85;12.10;;;;;;;7.59;60.95;102973.97;4956891;28;20172;-83
2022/12/18 09:31:53;;;;;;;17.60;12.15;;;;;;;7.87;61.38;103009.00;4958839;28;20416;-80
2022/12/18 09:34:23;;;;;;;17.00;12.52;;;;;;;7.71;61.00;102990.22;4963955;28;20054;-81
2022/12/18 09:36:50;;;;;;;19.90;13.35;;;;;;;7.89;60.42;103012.47;4958817;28;20065;-81
2022/12/18 09:39:17;;;;;;;20.33;13.30;;;;;;;7.00;61.09;102851.16;4963106;28;20065;-79
2022/12/18 09:41:49;;;;;;;;;;;;;;;7.93;60.77;103006.09;4963043;28;20149;-80
2022/12/18 09:44:45;;;;;;;16.85;13.02;;;;;;;7.92;62.01;103004.41;4954899;28;20329;-80
2022/12/18 09:47:28;;;;;;;17.33;12.63;;;;;;;7.92;60.99;102999.09;4940667;28;20065;-81
2022/12/18 09:50:02;;;;;;;14.95;12.05;;;;;;;7.94;60.58;103007.00;4944805;28;20397;-82
2022/12/18 09:52:47;;;;;;;15.95;12.43;;;;;;;7.95;60.70;103002.56;4952039;28;20152;-80
2022/12/18 09:55:41;;;;;;;16.13;13.13;;;;;;;7.72;60.51;102969.97;4968726;28;20221;-80
2022/12/18 09:58:31;;;;;;;16.67;12.13;;;;;;;7.70;60.75;102961.22;4960178;28;20050;-82
2022/12/18 10:01:28;;;;;;;16.35;11.50;;;;;;;7.55;60.38;102927.44;4961115;28;20050;-81
2022/12/18 10:04:08;;;;;;;19.40;12.40;;;;;;;7.90;59.86;102968.34;4959776;28;20461;-81
2022/12/18 10:06:45;;;;;;;19.15;11.95;;;;;;;8.07;59.42;102991.50;4941853;28;20414;-81
2022/12/18 10:09:28;;;;;;;15.05;12.32;;;;;;;8.06;59.33;102985.34;4959045;28;20050;-81
2022/12/18 10:12:17;;;;;;;20.00;13.60;;;;;;;8.04;60.65;102981.03;4960678;28;20050;-81
2022/12/18 10:15:04;;;;;;;16.48;11.80;;;;;;;7.74;61.79;102907.28;4943641;28;20160;-82
2022/12/18 10:17:45;;;;;;;18.50;13.30;;;;;;;7.78;60.12;102916.81;4964284;28;20605;-81
2022/12/18 10:20:50;;;;;;;16.90;12.55;;;;;;;8.07;59.97;102975.63;4968775;28;20069;-79
2022/12/18 10:23:33;;;;;;;15.75;12.90;;;;;;;8.07;59.95;102980.91;4969595;28;20081;-77
2022/12/18 10:26:12;;;;;;;14.88;13.00;;;;;;;8.19;59.93;102958.38;4973664;28;20050;-78
2022/12/18 10:28:41;;;;;;;17.20;13.10;;;;;;;8.21;59.60;102957.38;4969708;28;20165;-79
2022/12/18 10:31:20;;;;;;;18.67;12.95;;;;;;;8.05;59.21;102929.84;4968483;28;20649;-80
2022/12/18 10:33:50;;;;;;;17.58;12.88;;;;;;;8.13;60.08;102963.00;4960580;28;20050;-77
2022/12/18 10:36:18;;;;;;;16.70;13.23;;;;;;;8.19;60.35;102959.22;4967237;28;20050;-78
2022/12/18 10:38:45;;;;;;;19.35;13.68;;;;;;;8.24;60.36;102962.53;4960899;28;20047;-79
2022/12/18 10:41:25;;;;;;;17.60;13.20;;;;;;;8.19;60.56;102940.72;4958514;28;20551;-78
2022/12/18 10:44:20;;;;;;;21.60;12.90;;;;;;;8.26;60.85;102954.56;4962105;28;20103;-79
2022/12/18 10:46:49;;;;;;;18.83;12.88;;;;;;;8.27;60.45;102951.81;4970062;28;20082;-78
2022/12/18 10:49:34;;;;;;;16.75;13.18;;;;;;;8.35;60.01;102941.81;4980662;28;20196;-77
2022/12/18 10:52:17;;;;;;;16.92;12.90;;;;;;;8.36;60.14;102934.72;4976221;28;20088;-80
2022/12/18 10:55:03;;;;;;;18.13;13.05;;;;;;;8.48;58.99;102954.53;4974075;28;20058;-79
2022/12/18 10:57:40;;;;;;;14.27;12.73;;;;;;;8.54;59.39;102917.19;4983563;28;20053;-80
2022/12/18 11:00:30;;;;;;;22.73;13.55;;;;;;;8.72;58.98;102921.69;4977221;28;20350;-76
2022/12/18 11:02:57;;;;;;;17.80;13.60;;;;;;;8.76;58.50;102933.88;4975266;28;20057;-79
2022/12/18 11:05:31;;;;;;;19.50;12.95;;;;;;;8.78;58.03;102936.44;4977892;28;20066;-79
2022/12/18 11:07:59;;;;;;;16.50;13.02;;;;;;;8.71;59.39;102935.88;4994242;28;20455;-79
2022/12/18 11:10:38;;;;;;;19.50;13.07;;;;;;;8.69;59.27;102923.63;4996709;28;20504;-78
2022/12/18 11:13:11;;;;;;;17.63;13.68;;;;;;;8.27;60.45;102867.16;4981918;28;20050;-79
2022/12/18 11:15:41;;;;;;;17.98;14.02;;;;;;;7.97;59.70;102805.84;4980460;28;20150;-80
2022/12/18 11:18:17;;;;;;;16.67;12.98;;;;;;;8.77;58.75;102922.34;4980751;28;20591;-78
2022/12/18 11:20:51;;;;;;;18.10;13.38;;;;;;;8.82;58.56;102953.94;4979530;28;20184;-79
2022/12/18 11:23:26;;;;;;;20.30;13.93;;;;;;;8.66;58.88;102929.91;4979237;28;20124;-79
2022/12/18 11:26:02;;;;;;;18.20;12.65;;;;;;;8.52;59.01;102905.84;4978434;28;20060;-79
2022/12/18 11:28:40;;;;;;;17.75;13.30;;;;;;;8.42;59.23;102908.00;4977465;28;20801;-79
2022/12/18 11:31:24;;;;;;;20.75;12.45;;;;;;;8.60;59.00;102930.19;5000631;28;20757;-79
2022/12/18 11:33:57;;;;;;;;;;;;;;;8.68;58.86;102940.44;4965840;28;20449;-81
2022/12/18 11:36:47;;;;;;;22.80;13.93;;;;;;;8.61;58.96;102928.41;4979310;28;19964;-79
2022/12/18 11:39:40;;;;;;;19.70;13.10;;;;;;;8.77;59.82;102954.13;4981402;28;20408;-79
2022/12/18 11:42:22;;;;;;;16.63;13.27;;;;;;;8.68;59.44;102938.66;4979424;28;20408;-79
2022/12/18 11:45:06;;;;;;;18.13;12.77;;;;;;;8.81;59.01;102952.22;4990407;28;20054;-77
2022/12/18 11:48:12;;;;;;;18.38;13.38;;;;;;;8.73;60.08;102954.34;4991367;28;20061;-76
2022/12/18 11:50:53;;;;;;;18.02;12.95;;;;;;;8.67;59.62;102944.88;4984508;28;20080;-78
2022/12/18 11:53:22;;;;;;;19.80;11.65;;;;;;;8.80;59.74;102939.03;4977618;28;20057;-83